Time;durP1;ratioP1;P1;durP2;ratioP2;P2;SDS_P1;SDS_P2;PMS_P1;PMS_P2;Temp;Humidity;BMP_temperature;BMP_pressure;BME280_temperature;BME280_humidity;BME280_pressure;Samples;Min_cycle;Max_cycle;Signal;HPM_P1;HPM_P2
2023/01/11 00:00:42;;;;;;;;;;;;;;;;;;7358510;19;20824;-77
2023/01/11 00:03:07;;;;;;;;;;;;;;;;;;7361286;19;19911;-77
2023/01/11 00:05:32;;;;;;;;;;;;;;;;;;7342857;19;20243;-78
2023/01/11 00:07:57;;;;;;;;;;;;;;;;;;7359693;19;20023;-77
2023/01/11 00:10:22;;;;;;;;;;;;;;;;;;7368056;19;20004;-77
2023/01/11 00:12:48;;;;;;;;;;;;;;;;;;7363490;19;19918;-77
2023/01/11 00:15:13;;;;;;;;;;;;;;;;;;7359423;19;19938;-77
2023/01/11 00:17:38;;;;;;;;;;;;;;;;;;7365058;19;20006;-77
2023/01/11 00:20:03;;;;;;;;;;;;;;;;;;7362833;19;19930;-76
2023/01/11 00:22:28;;;;;;;;;;;;;;;;;;7362107;19;19964;-77
2023/01/11 00:24:54;;;;;;;;;;;;;;;;;;7363958;19;19926;-76
2023/01/11 00:27:19;;;;;;;;;;;;;;;;;;7361330;19;19922;-77
2023/01/11 00:29:44;;;;;;;;;;;;;;;;;;7365482;19;20224;-77
2023/01/11 00:32:09;;;;;;;;;;;;;;;;;;7360731;19;20074;-78
2023/01/11 00:34:34;;;;;;;;;;;;;;;;;;7356146;19;20247;-77
2023/01/11 00:36:59;;;;;;;;;;;;;;;;;;7359798;19;19971;-77
2023/01/11 00:39:24;;;;;;;;;;;;;;;;;;7361877;19;20229;-77
2023/01/11 00:50:01;;;;;;;;;;;;;;;;;;7364181;19;19959;-78
2023/01/11 00:52:27;;;;;;;;;;;;;;;;;;7361281;19;19922;-77
2023/01/11 00:54:52;;;;;;;;;;;;;;;;;;7362703;19;19934;-77
2023/01/11 00:57:17;;;;;;;;;;;;;;;;;;7366735;19;20107;-77
2023/01/11 00:59:42;;;;;;;;;;;;;;;;;;7367780;19;20298;-77
2023/01/11 01:02:07;;;;;;;;;;;;;;;;;;7369093;19;19931;-77
2023/01/11 01:04:32;;;;;;;;;;;;;;;;;;7364820;19;19930;-77
2023/01/11 01:06:58;;;;;;;;;;;;;;;;;;7361797;19;19985;-77
2023/01/11 01:09:23;;;;;;;;;;;;;;;;;;7360955;19;20221;-78
2023/01/11 01:11:48;;;;;;;;;;;;;;;;;;7357906;19;19957;-78
2023/01/11 01:14:27;;;;;;;;;;;;;;;;;;7368548;19;19928;-78
2023/01/11 01:16:52;;;;;;;;;;;;;;;;;;7358586;19;19933;-77
2023/01/11 01:19:17;;;;;;;;;;;;;;;;;;7365757;19;19993;-78
2023/01/11 01:21:42;;;;;;;;;;;;;;;;;;7361408;19;19923;-78
2023/01/11 01:24:07;;;;;;;;;;;;;;;;;;7364071;19;20372;-78
2023/01/11 01:26:32;;;;;;;;;;;;;;;;;;7363040;19;19925;-78
2023/01/11 01:28:57;;;;;;;;;;;;;;;;;;7345014;19;19935;-77
2023/01/11 01:31:22;;;;;;;;;;;;;;;;;;7357850;19;19926;-78
2023/01/11 01:33:48;;;;;;;;;;;;;;;;;;7361853;19;19927;-78
2023/01/11 01:36:13;;;;;;;;;;;;;;;;;;7364855;19;19941;-78
2023/01/11 01:38:38;;;;;;;;;;;;;;;;;;7354001;19;20341;-78
2023/01/11 01:41:03;;;;;;;;;;;;;;;;;;7366066;19;20027;-78
2023/01/11 01:43:28;;;;;;;;;;;;;;;;;;7359790;19;19922;-78
2023/01/11 01:45:54;;;;;;;;;;;;;;;;;;7354681;19;19925;-77
2023/01/11 01:48:20;;;;;;;;;;;;;;;;;;7365986;19;20308;-78
2023/01/11 01:50:45;;;;;;;;;;;;;;;;;;7363594;19;20499;-77
2023/01/11 01:53:10;;;;;;;;;;;;;;;;;;7362784;19;20337;-77
2023/01/11 01:55:35;;;;;;;;;;;;;;;;;;7364071;19;19911;-77
2023/01/11 01:58:00;;;;;;;;;;;;;;;;;;7363185;19;19952;-77
2023/01/11 02:00:25;;;;;;;;;;;;;;;;;;7352911;19;20209;-77
2023/01/11 02:02:50;;;;;;;;;;;;;;;;;;7359688;19;20601;-78
2023/01/11 02:05:16;;;;;;;;;;;;;;;;;;7371289;19;19926;-77
2023/01/11 02:07:42;;;;;;;;;;;;;;;;;;7365020;19;19918;-78
2023/01/11 02:10:07;;;;;;;;;;;;;;;;;;7370335;19;20015;-77
2023/01/11 02:12:32;;;;;;;;;;;;;;;;;;7364678;19;20074;-77
2023/01/11 02:14:57;;;;;;;;;;;;;;;;;;7363383;19;19946;-77
2023/01/11 02:17:22;;;;;;;;;;;;;;;;;;7367116;19;19918;-78
2023/01/11 02:19:47;;;;;;;;;;;;;;;;;;7368834;19;19934;-78
2023/01/11 02:22:12;;;;;;;;;;;;;;;;;;7363272;19;20050;-78
2023/01/11 02:24:38;;;;;;;;;;;;;;;;;;7361906;19;20355;-79
2023/01/11 02:27:03;;;;;;;;;;;;;;;;;;7370008;19;19978;-78
2023/01/11 02:29:28;;;;;;;;;;;;;;;;;;7341586;19;19962;-77
2023/01/11 02:31:53;;;;;;;;;;;;;;;;;;7267427;19;20278;-77
2023/01/11 02:34:18;;;;;;;;;;;;;;;;;;7277886;19;19986;-78
2023/01/11 02:36:44;;;;;;;;;;;;;;;;;;7274653;19;20186;-78
2023/01/11 02:39:10;;;;;;;;;;;;;;;;;;7286610;19;19926;-77
2023/01/11 02:45:00;;;;;;;;;;;;;;;;;;7278097;19;20486;-78
2023/01/11 02:47:04;;;;;;;;;;;;;;;;;;7276678;19;19945;-77
2023/01/11 02:49:29;;;;;;;;;;;;;;;;;;7274943;19;19942;-76
2023/01/11 02:51:54;;;;;;;;;;;;;;;;;;7272826;19;20575;-77
2023/01/11 02:54:19;;;;;;;;;;;;;;;;;;7275735;19;20354;-77
2023/01/11 02:56:44;;;;;;;;;;;;;;;;;;7265087;19;19961;-77
2023/01/11 02:59:10;;;;;;;;;;;;;;;;;;7272867;19;20271;-78
2023/01/11 03:01:38;;;;;;;;;;;;;;;;;;7259466;19;19910;-77
2023/01/11 03:04:03;;;;;;;;;;;;;;;;;;7267664;19;19922;-77
2023/01/11 03:06:28;;;;;;;;;;;;;;;;;;7268329;19;20327;-77
2023/01/11 03:08:53;;;;;;;;;;;;;;;;;;7270597;19;20190;-77
2023/01/11 03:14:03;;;;;;;;;;;;;;;;;;7270419;19;19937;-78
2023/01/11 03:16:28;;;;;;;;;;;;;;;;;;7265487;19;20435;-76
2023/01/11 03:18:53;;;;;;;;;;;;;;;;;;7269454;19;19935;-77
2023/01/11 03:21:18;;;;;;;;;;;;;;;;;;7277187;19;20351;-77
2023/01/11 03:23:43;;;;;;;;;;;;;;;;;;7272220;19;20195;-76
2023/01/11 03:26:08;;;;;;;;;;;;;;;;;;7268102;19;20487;-76
2023/01/11 03:28:34;;;;;;;;;;;;;;;;;;7284027;19;19958;-76
2023/01/11 03:30:59;;;;;;;;;;;;;;;;;;7349794;19;19919;-76
2023/01/11 03:33:24;;;;;;;;;;;;;;;;;;7368372;19;19935;-77
2023/01/11 03:35:49;;;;;;;;;;;;;;;;;;7365972;19;19929;-78
2023/01/11 03:38:14;;;;;;;;;;;;;;;;;;7364891;19;19919;-77
2023/01/11 03:40:39;;;;;;;;;;;;;;;;;;7363770;19;19979;-77
2023/01/11 03:43:10;;;;;;;;;;;;;;;;;;7361648;19;19931;-77
2023/01/11 03:45:35;;;;;;;;;;;;;;;;;;7357644;19;19936;-77
2023/01/11 03:48:01;;;;;;;;;;;;;;;;;;7367805;19;19930;-78
2023/01/11 03:50:26;;;;;;;;;;;;;;;;;;7367184;19;20352;-77
2023/01/11 03:52:52;;;;;;;;;;;;;;;;;;7366973;19;19947;-77
2023/01/11 03:55:17;;;;;;;;;;;;;;;;;;7350436;19;20347;-77
2023/01/11 03:57:42;;;;;;;;;;;;;;;;;;7358581;19;19949;-78
2023/01/11 04:00:07;;;;;;;;;;;;;;;;;;7364438;19;19914;-78
2023/01/11 04:02:32;;;;;;;;;;;;;;;;;;7366538;19;19926;-77
2023/01/11 04:04:58;;;;;;;;;;;;;;;;;;7364284;19;19918;-77
2023/01/11 04:07:23;;;;;;;;;;;;;;;;;;7365225;19;19927;-78
2023/01/11 04:09:48;;;;;;;;;;;;;;;;;;7363964;19;19910;-77
2023/01/11 04:12:13;;;;;;;;;;;;;;;;;;7369129;19;19991;-77
2023/01/11 04:14:38;;;;;;;;;;;;;;;;;;7357320;19;19919;-76
2023/01/11 04:17:05;;;;;;;;;;;;;;;;;;7365943;19;20223;-78
2023/01/11 04:19:30;;;;;;;;;;;;;;;;;;7364370;19;19983;-77
2023/01/11 04:21:55;;;;;;;;;;;;;;;;;;7366091;19;19991;-77
2023/01/11 04:24:20;;;;;;;;;;;;;;;;;;7363954;19;19975;-77
2023/01/11 04:26:46;;;;;;;;;;;;;;;;;;7363722;19;20309;-77
2023/01/11 04:29:11;;;;;;;;;;;;;;;;;;7360261;19;19923;-77
2023/01/11 04:31:36;;;;;;;;;;;;;;;;;;7367133;19;19996;-77
2023/01/11 04:34:01;;;;;;;;;;;;;;;;;;7363750;19;20007;-77
2023/01/11 04:36:27;;;;;;;;;;;;;;;;;;7364585;19;19939;-79
2023/01/11 04:38:52;;;;;;;;;;;;;;;;;;7356913;19;20218;-77
2023/01/11 04:44:01;;;;;;;;;;;;;;;;;;7352992;19;19935;-77
2023/01/11 04:46:26;;;;;;;;;;;;;;;;;;7363337;19;20419;-76
2023/01/11 04:48:51;;;;;;;;;;;;;;;;;;7363475;19;19923;-77
2023/01/11 04:51:16;;;;;;;;;;;;;;;;;;7363392;19;19972;-78
2023/01/11 04:53:42;;;;;;;;;;;;;;;;;;7363325;19;20026;-77
2023/01/11 04:56:07;;;;;;;;;;;;;;;;;;7360318;19;19927;-77
2023/01/11 04:58:32;;;;;;;;;;;;;;;;;;7367435;19;20242;-78
2023/01/11 05:00:57;;;;;;;;;;;;;;;;;;7359271;19;20614;-77
2023/01/11 05:03:22;;;;;;;;;;;;;;;;;;7363477;19;19918;-78
2023/01/11 05:05:47;;;;;;;;;;;;;;;;;;7358887;19;19914;-76
2023/01/11 05:08:12;;;;;;;;;;;;;;;;;;7362215;19;20285;-77
2023/01/11 05:10:37;;;;;;;;;;;;;;;;;;7360075;19;19942;-76
2023/01/11 05:13:02;;;;;;;;;;;;;;;;;;7365980;19;19954;-77
2023/01/11 05:15:28;;;;;;;;;;;;;;;;;;7349637;19;19930;-77
2023/01/11 05:17:53;;;;;;;;;;;;;;;;;;7361661;19;20027;-78
2023/01/11 05:20:18;;;;;;;;;;;;;;;;;;7359879;19;19938;-77
2023/01/11 05:22:43;;;;;;;;;;;;;;;;;;7359468;19;19986;-78
2023/01/11 05:25:08;;;;;;;;;;;;;;;;;;7362346;19;19923;-77
2023/01/11 05:27:33;;;;;;;;;;;;;;;;;;7362375;19;19918;-77
2023/01/11 05:29:58;;;;;;;;;;;;;;;;;;7360556;19;19944;-77
2023/01/11 05:32:23;;;;;;;;;;;;;;;;;;7363338;19;19946;-77
2023/01/11 05:34:48;;;;;;;;;;;;;;;;;;7358540;19;19951;-77
2023/01/11 05:37:14;;;;;;;;;;;;;;;;;;7360276;19;19915;-76
2023/01/11 05:39:39;;;;;;;;;;;;;;;;;;7357644;19;20673;-76
2023/01/11 05:42:04;;;;;;;;;;;;;;;;;;7367858;19;19933;-78
2023/01/11 05:47:13;;;;;;;;;;;;;;;;;;7369886;19;19940;-78
2023/01/11 05:49:38;;;;;;;;;;;;;;;;;;7341559;19;19930;-78
2023/01/11 05:52:03;;;;;;;;;;;;;;;;;;7365799;19;20674;-78
2023/01/11 05:54:29;;;;;;;;;;;;;;;;;;7364553;19;20119;-79
2023/01/11 05:56:54;;;;;;;;;;;;;;;;;;7372545;19;19942;-79
2023/01/11 05:59:19;;;;;;;;;;;;;;;;;;7368634;19;20309;-79
2023/01/11 06:01:44;;;;;;;;;;;;;;;;;;7371994;19;19951;-78
2023/01/11 06:04:09;;;;;;;;;;;;;;;;;;7374660;19;19923;-78
2023/01/11 06:06:34;;;;;;;;;;;;;;;;;;7368068;19;19951;-79
2023/01/11 06:08:59;;;;;;;;;;;;;;;;;;7372017;19;20320;-78
2023/01/11 06:11:24;;;;;;;;;;;;;;;;;;7376121;19;19967;-77
2023/01/11 06:13:50;;;;;;;;;;;;;;;;;;7364370;19;19931;-78
2023/01/11 06:16:15;;;;;;;;;;;;;;;;;;7367134;19;19925;-79
2023/01/11 06:18:40;;;;;;;;;;;;;;;;;;7354640;19;20320;-78
2023/01/11 06:21:05;;;;;;;;;;;;;;;;;;7368119;19;19919;-79
2023/01/11 06:23:30;;;;;;;;;;;;;;;;;;7371877;19;20239;-78
2023/01/11 06:25:55;;;;;;;;;;;;;;;;;;7352596;19;19968;-79
2023/01/11 06:28:20;;;;;;;;;;;;;;;;;;7367723;19;20608;-78
2023/01/11 06:30:45;;;;;;;;;;;;;;;;;;7355971;19;19929;-79
2023/01/11 06:33:10;;;;;;;;;;;;;;;;;;7372111;19;20011;-79
2023/01/11 06:35:36;;;;;;;;;;;;;;;;;;7372476;19;20202;-78
2023/01/11 06:38:01;;;;;;;;;;;;;;;;;;7366845;19;19970;-78
2023/01/11 06:40:26;;;;;;;;;;;;;;;;;;7363208;19;20305;-78
2023/01/11 06:42:51;;;;;;;;;;;;;;;;;;7359587;19;19921;-78
2023/01/11 06:45:16;;;;;;;;;;;;;;;;;;7364240;19;20313;-78
2023/01/11 06:47:41;;;;;;;;;;;;;;;;;;7368006;19;20011;-79
2023/01/11 06:50:06;;;;;;;;;;;;;;;;;;7365931;19;20293;-78
2023/01/11 06:52:31;;;;;;;;;;;;;;;;;;7367186;19;19919;-78
2023/01/11 06:54:56;;;;;;;;;;;;;;;;;;7363255;19;19943;-76
2023/01/11 06:57:21;;;;;;;;;;;;;;;;;;7370426;19;19937;-79
2023/01/11 06:59:47;;;;;;;;;;;;;;;;;;7363263;19;19946;-79
2023/01/11 07:02:12;;;;;;;;;;;;;;;;;;7369378;19;19927;-78
2023/01/11 07:04:38;;;;;;;;;;;;;;;;;;7370885;19;19919;-77
2023/01/11 07:07:03;;;;;;;;;;;;;;;;;;7368849;19;20271;-78
2023/01/11 07:09:28;;;;;;;;;;;;;;;;;;7369023;19;19960;-77
2023/01/11 07:11:53;;;;;;;;;;;;;;;;;;7365902;19;19994;-78
2023/01/11 07:14:19;;;;;;;;;;;;;;;;;;7368065;19;19923;-78
2023/01/11 07:16:45;;;;;;;;;;;;;;;;;;7371532;19;19934;-78
2023/01/11 07:19:10;;;;;;;;;;;;;;;;;;7366113;19;20367;-80
2023/01/11 07:21:35;;;;;;;;;;;;;;;;;;7356340;19;20462;-80
2023/01/11 07:24:01;;;;;;;;;;;;;;;;;;7368591;19;20252;-80
2023/01/11 07:26:27;;;;;;;;;;;;;;;;;;7371205;19;20366;-80
2023/01/11 07:28:52;;;;;;;;;;;;;;;;;;7366313;19;19923;-80
2023/01/11 07:31:17;;;;;;;;;;;;;;;;;;7363471;19;19934;-81
2023/01/11 07:33:42;;;;;;;;;;;;;;;;;;7367162;19;19922;-80
2023/01/11 07:36:07;;;;;;;;;;;;;;;;;;7367019;19;19925;-81
2023/01/11 07:38:32;;;;;;;;;;;;;;;;;;7366263;19;19943;-82
2023/01/11 07:40:57;;;;;;;;;;;;;;;;;;7367302;19;19945;-81
2023/01/11 07:43:22;;;;;;;;;;;;;;;;;;7368972;19;19942;-81
2023/01/11 07:45:48;;;;;;;;;;;;;;;;;;7364627;19;19942;-81
2023/01/11 07:48:13;;;;;;;;;;;;;;;;;;7368677;19;19940;-81
2023/01/11 07:50:39;;;;;;;;;;;;;;;;;;7366632;19;19929;-82
2023/01/11 07:53:04;;;;;;;;;;;;;;;;;;7366397;19;19923;-81
2023/01/11 07:55:29;;;;;;;;;;;;;;;;;;7371660;19;20358;-81
2023/01/11 07:57:54;;;;;;;;;;;;;;;;;;7367279;19;19919;-81
2023/01/11 08:00:19;;;;;;;;;;;;;;;;;;7365161;19;19907;-82
2023/01/11 08:02:44;;;;;;;;;;;;;;;;;;7363605;19;20333;-81
2023/01/11 08:05:09;;;;;;;;;;;;;;;;;;7367314;19;20277;-82
2023/01/11 08:07:34;;;;;;;;;;;;;;;;;;7368558;19;20233;-79
2023/01/11 08:10:00;;;;;;;;;;;;;;;;;;7368360;19;19982;-82
2023/01/11 08:15:13;;;;;;;;;;;;;;;;;;7363744;19;19950;-82
2023/01/11 08:17:38;;;;;;;;;;;;;;;;;;7347137;19;20023;-82
2023/01/11 08:20:03;;;;;;;;;;;;;;;;;;7369266;19;20035;-81
2023/01/11 08:22:28;;;;;;;;;;;;;;;;;;7368381;19;19956;-82
2023/01/11 08:24:53;;;;;;;;;;;;;;;;;;7366448;19;20285;-81
2023/01/11 08:27:18;;;;;;;;;;;;;;;;;;7371807;19;19926;-82
2023/01/11 08:29:43;;;;;;;;;;;;;;;;;;7368315;19;19922;-81
2023/01/11 08:32:08;;;;;;;;;;;;;;;;;;7366865;19;19930;-80
2023/01/11 08:34:33;;;;;;;;;;;;;;;;;;7371550;19;20261;-81
2023/01/11 08:37:00;;;;;;;;;;;;;;;;;;7368824;19;20078;-82
2023/01/11 08:39:28;;;;;;;;;;;;;;;;;;7369671;19;19919;-82
2023/01/11 08:41:53;;;;;;;;;;;;;;;;;;7369944;19;19923;-81
2023/01/11 08:44:18;;;;;;;;;;;;;;;;;;7367045;19;19927;-81
2023/01/11 08:46:43;;;;;;;;;;;;;;;;;;7369196;19;20303;-81
2023/01/11 08:49:11;;;;;;;;;;;;;;;;;;7365048;19;19915;-82
2023/01/11 08:51:36;;;;;;;;;;;;;;;;;;7370903;19;20316;-82
2023/01/11 08:54:01;;;;;;;;;;;;;;;;;;7366132;19;20360;-83
2023/01/11 08:56:26;;;;;;;;;;;;;;;;;;7366832;19;19919;-82
2023/01/11 08:58:51;;;;;;;;;;;;;;;;;;7366275;19;19939;-80
2023/01/11 09:01:16;;;;;;;;;;;;;;;;;;7367099;19;19978;-81
2023/01/11 09:03:41;;;;;;;;;;;;;;;;;;7368452;19;20430;-82
2023/01/11 09:06:07;;;;;;;;;;;;;;;;;;7369527;19;19915;-82
2023/01/11 09:08:32;;;;;;;;;;;;;;;;;;7366949;19;19923;-82
2023/01/11 09:10:58;;;;;;;;;;;;;;;;;;7365860;19;20007;-82
2023/01/11 09:13:23;;;;;;;;;;;;;;;;;;7375910;19;20351;-83
2023/01/11 09:15:50;;;;;;;;;;;;;;;;;;7374280;19;20590;-81
2023/01/11 09:18:16;;;;;;;;;;;;;;;;;;7373661;19;19915;-81
2023/01/11 09:20:41;;;;;;;;;;;;;;;;;;7376023;19;19952;-82
2023/01/11 09:23:06;;;;;;;;;;;;;;;;;;7367674;19;19979;-83
2023/01/11 09:25:32;;;;;;;;;;;;;;;;;;7380477;19;19945;-82
2023/01/11 09:27:57;;;;;;;;;;;;;;;;;;7374109;19;19930;-82
2023/01/11 09:30:22;;;;;;;;;;;;;;;;;;7370720;19;19926;-82
2023/01/11 09:32:47;;;;;;;;;;;;;;;;;;7349404;19;20284;-82
2023/01/11 09:35:14;;;;;;;;;;;;;;;;;;7372783;19;19923;-83
2023/01/11 09:37:43;;;;;;;;;;;;;;;;;;7372751;19;19978;-82
2023/01/11 09:40:08;;;;;;;;;;;;;;;;;;7372508;19;20423;-83
2023/01/11 09:42:35;;;;;;;;;;;;;;;;;;7374366;19;19934;-82
2023/01/11 09:45:01;;;;;;;;;;;;;;;;;;7371245;19;19919;-82
2023/01/11 09:47:27;;;;;;;;;;;;;;;;;;7377419;19;19944;-83
2023/01/11 09:49:54;;;;;;;;;;;;;;;;;;7377485;19;19995;-82
2023/01/11 09:52:19;;;;;;;;;;;;;;;;;;7375918;19;20309;-82
2023/01/11 09:54:46;;;;;;;;;;;;;;;;;;7378377;19;20344;-82
2023/01/11 09:57:12;;;;;;;;;;;;;;;;;;7370059;19;19934;-83
2023/01/11 09:59:41;;;;;;;;;;;;;;;;;;7364080;19;19926;-82
2023/01/11 10:02:10;;;;;;;;;;;;;;;;;;7367784;19;19943;-82
2023/01/11 10:04:37;;;;;;;;;;;;;;;;;;7379139;19;20380;-82
2023/01/11 10:07:02;;;;;;;;;;;;;;;;;;7369783;19;20365;-83
2023/01/11 10:09:28;;;;;;;;;;;;;;;;;;7378347;19;19926;-82
2023/01/11 10:11:54;;;;;;;;;;;;;;;;;;7377725;19;19915;-83
2023/01/11 10:14:21;;;;;;;;;;;;;;;;;;7375712;19;19919;-82
2023/01/11 10:16:47;;;;;;;;;;;;;;;;;;7376004;19;20024;-82
2023/01/11 10:19:15;;;;;;;;;;;;;;;;;;7372572;19;20454;-83
2023/01/11 10:21:41;;;;;;;;;;;;;;;;;;7377609;19;19922;-82
2023/01/11 10:24:07;;;;;;;;;;;;;;;;;;7371209;19;20039;-82
2023/01/11 10:26:34;;;;;;;;;;;;;;;;;;7378164;19;20039;-81
2023/01/11 10:34:41;;;;;;;;;;;;;;;;;;7378160;19;19907;-82
2023/01/11 10:42:25;;;;;;;;;;;;;;;;;;7377148;19;20404;-81
2023/01/11 10:44:51;;;;;;;;;;;;;;;;;;7372472;19;19923;-81
2023/01/11 10:47:16;;;;;;;;;;;;;;;;;;7374419;19;19923;-82
2023/01/11 10:49:42;;;;;;;;;;;;;;;;;;7374787;19;19918;-81
2023/01/11 10:52:07;;;;;;;;;;;;;;;;;;7370220;19;19978;-78
2023/01/11 10:54:35;;;;;;;;;;;;;;;;;;7374349;19;20090;-81
2023/01/11 10:57:00;;;;;;;;;;;;;;;;;;7374727;19;19939;-81
2023/01/11 10:59:26;;;;;;;;;;;;;;;;;;7359535;19;20292;-80
2023/01/11 11:01:51;;;;;;;;;;;;;;;;;;7369701;19;20036;-80
2023/01/11 11:04:16;;;;;;;;;;;;;;;;;;7373149;19;20348;-82
2023/01/11 11:06:41;;;;;;;;;;;;;;;;;;7371939;19;19949;-82
2023/01/11 11:09:07;;;;;;;;;;;;;;;;;;7369947;19;19967;-82
2023/01/11 11:11:32;;;;;;;;;;;;;;;;;;7374705;19;20349;-82
2023/01/11 11:13:57;;;;;;;;;;;;;;;;;;7373878;19;19927;-82
2023/01/11 11:16:22;;;;;;;;;;;;;;;;;;7377331;19;19926;-82
2023/01/11 11:18:47;;;;;;;;;;;;;;;;;;7373956;19;20380;-81
2023/01/11 11:21:12;;;;;;;;;;;;;;;;;;7371846;19;19919;-82
2023/01/11 11:23:37;;;;;;;;;;;;;;;;;;7371964;19;19978;-81
2023/01/11 11:26:02;;;;;;;;;;;;;;;;;;7372376;19;19939;-81
2023/01/11 11:28:28;;;;;;;;;;;;;;;;;;7373037;19;19923;-82
2023/01/11 11:30:53;;;;;;;;;;;;;;;;;;7368600;19;19946;-82
2023/01/11 11:33:18;;;;;;;;;;;;;;;;;;7374501;19;19915;-80
2023/01/11 11:35:45;;;;;;;;;;;;;;;;;;7374922;19;19919;-82
2023/01/11 11:38:10;;;;;;;;;;;;;;;;;;7371823;19;20021;-82
2023/01/11 11:40:35;;;;;;;;;;;;;;;;;;7377736;19;19922;-83
2023/01/11 11:43:00;;;;;;;;;;;;;;;;;;7372730;19;20034;-81
2023/01/11 11:45:25;;;;;;;;;;;;;;;;;;7371704;19;20356;-83
2023/01/11 11:47:50;;;;;;;;;;;;;;;;;;7375071;19;19919;-82
2023/01/11 11:50:15;;;;;;;;;;;;;;;;;;7371357;19;20159;-82
2023/01/11 11:52:41;;;;;;;;;;;;;;;;;;7374079;19;20250;-82
2023/01/11 11:55:06;;;;;;;;;;;;;;;;;;7363577;19;19926;-81
2023/01/11 11:57:31;;;;;;;;;;;;;;;;;;7362100;19;20355;-82
2023/01/11 11:59:56;;;;;;;;;;;;;;;;;;7362561;19;20014;-80
2023/01/11 12:02:21;;;;;;;;;;;;;;;;;;7368989;19;19919;-82
2023/01/11 12:04:46;;;;;;;;;;;;;;;;;;7373976;19;20208;-83
2023/01/11 12:07:13;;;;;;;;;;;;;;;;;;7369898;19;19918;-81
2023/01/11 12:09:39;;;;;;;;;;;;;;;;;;7370874;19;19918;-82
2023/01/11 12:12:04;;;;;;;;;;;;;;;;;;7372246;19;20025;-82
2023/01/11 12:14:29;;;;;;;;;;;;;;;;;;7371510;19;19919;-82
2023/01/11 12:16:54;;;;;;;;;;;;;;;;;;7359003;19;19923;-82
2023/01/11 12:19:19;;;;;;;;;;;;;;;;;;7367651;19;19925;-83
2023/01/11 12:21:44;;;;;;;;;;;;;;;;;;7374348;19;20685;-82
2023/01/11 12:24:10;;;;;;;;;;;;;;;;;;7370203;19;19923;-82
2023/01/11 12:26:35;;;;;;;;;;;;;;;;;;7374024;19;19925;-81
2023/01/11 12:29:00;;;;;;;;;;;;;;;;;;7365938;19;19939;-82
2023/01/11 12:31:25;;;;;;;;;;;;;;;;;;7370649;19;20011;-82
2023/01/11 12:33:50;;;;;;;;;;;;;;;;;;7372946;19;20050;-83
2023/01/11 12:36:15;;;;;;;;;;;;;;;;;;7372307;19;19919;-82
2023/01/11 12:38:40;;;;;;;;;;;;;;;;;;7364708;19;19923;-83
2023/01/11 12:41:05;;;;;;;;;;;;;;;;;;7367756;19;19922;-82
2023/01/11 12:43:33;;;;;;;;;;;;;;;;;;7368339;19;19966;-84
2023/01/11 12:45:58;;;;;;;;;;;;;;;;;;7369887;19;20223;-82
2023/01/11 12:48:23;;;;;;;;;;;;;;;;;;7359266;19;20261;-82
2023/01/11 12:50:48;;;;;;;;;;;;;;;;;;7361827;19;19923;-83
2023/01/11 12:53:13;;;;;;;;;;;;;;;;;;7367746;19;19925;-83
2023/01/11 12:55:38;;;;;;;;;;;;;;;;;;7373005;19;19975;-82
2023/01/11 12:58:04;;;;;;;;;;;;;;;;;;7367691;19;19926;-80
2023/01/11 13:00:29;;;;;;;;;;;;;;;;;;7364188;19;20002;-83
2023/01/11 13:02:54;;;;;;;;;;;;;;;;;;7368906;19;19934;-83
2023/01/11 13:05:22;;;;;;;;;;;;;;;;;;7366286;19;19945;-82
2023/01/11 13:07:47;;;;;;;;;;;;;;;;;;7369946;19;19936;-83
2023/01/11 13:10:12;;;;;;;;;;;;;;;;;;7366249;19;19919;-82
2023/01/11 13:12:37;;;;;;;;;;;;;;;;;;7369541;19;19919;-82
2023/01/11 13:15:03;;;;;;;;;;;;;;;;;;7368976;19;19938;-83
2023/01/11 13:17:28;;;;;;;;;;;;;;;;;;7364918;19;20020;-82
2023/01/11 13:19:53;;;;;;;;;;;;;;;;;;7367184;19;19946;-82
2023/01/11 13:22:18;;;;;;;;;;;;;;;;;;7365582;19;19927;-83
2023/01/11 13:24:44;;;;;;;;;;;;;;;;;;7371596;19;19943;-83
2023/01/11 13:27:09;;;;;;;;;;;;;;;;;;7369614;19;19919;-82
2023/01/11 13:29:34;;;;;;;;;;;;;;;;;;7368941;19;19919;-82
2023/01/11 13:31:59;;;;;;;;;;;;;;;;;;7359504;19;19978;-80
2023/01/11 13:34:24;;;;;;;;;;;;;;;;;;7358829;19;19964;-82
2023/01/11 13:36:50;;;;;;;;;;;;;;;;;;7370240;19;19919;-82
2023/01/11 13:39:15;;;;;;;;;;;;;;;;;;7369657;19;19926;-82
2023/01/11 13:41:40;;;;;;;;;;;;;;;;;;7352276;19;19927;-82
2023/01/11 13:44:05;;;;;;;;;;;;;;;;;;7365858;19;20201;-82
2023/01/11 13:46:30;;;;;;;;;;;;;;;;;;7371735;19;19926;-82
2023/01/11 13:48:55;;;;;;;;;;;;;;;;;;7370653;19;19986;-82
2023/01/11 13:51:21;;;;;;;;;;;;;;;;;;7370185;19;20262;-82
2023/01/11 13:53:46;;;;;;;;;;;;;;;;;;7368245;19;20483;-83
2023/01/11 13:56:11;;;;;;;;;;;;;;;;;;7369139;19;20307;-82
2023/01/11 13:58:36;;;;;;;;;;;;;;;;;;7371519;19;20027;-83
2023/01/11 14:01:02;;;;;;;;;;;;;;;;;;7372579;19;19914;-83
2023/01/11 14:03:27;;;;;;;;;;;;;;;;;;7372775;19;20231;-83
2023/01/11 14:05:52;;;;;;;;;;;;;;;;;;7378264;19;20289;-83
2023/01/11 14:08:17;;;;;;;;;;;;;;;;;;7362169;19;20583;-81
2023/01/11 14:10:42;;;;;;;;;;;;;;;;;;7378962;19;19939;-82
2023/01/11 14:13:08;;;;;;;;;;;;;;;;;;7372757;19;19941;-80
2023/01/11 14:15:35;;;;;;;;;;;;;;;;;;7373603;19;19949;-80
2023/01/11 14:18:04;;;;;;;;;;;;;;;;;;7376064;19;20300;-81
2023/01/11 14:20:29;;;;;;;;;;;;;;;;;;7373428;19;19915;-81
2023/01/11 14:22:54;;;;;;;;;;;;;;;;;;7371203;19;19938;-82
2023/01/11 14:25:19;;;;;;;;;;;;;;;;;;7375915;19;20265;-81
2023/01/11 14:27:45;;;;;;;;;;;;;;;;;;7377687;19;19919;-81
2023/01/11 14:30:10;;;;;;;;;;;;;;;;;;7371958;19;20308;-81
2023/01/11 14:32:35;;;;;;;;;;;;;;;;;;7375997;19;19977;-81
2023/01/11 14:35:01;;;;;;;;;;;;;;;;;;7372498;19;19983;-82
2023/01/11 14:37:26;;;;;;;;;;;;;;;;;;7370621;19;19914;-81
2023/01/11 14:39:52;;;;;;;;;;;;;;;;;;7370540;19;19915;-82
2023/01/11 14:42:17;;;;;;;;;;;;;;;;;;7373008;19;19943;-82
2023/01/11 14:44:42;;;;;;;;;;;;;;;;;;7371482;19;19915;-81
2023/01/11 14:47:08;;;;;;;;;;;;;;;;;;7374225;19;19950;-82
2023/01/11 14:49:33;;;;;;;;;;;;;;;;;;7375309;19;19923;-82
2023/01/11 14:51:58;;;;;;;;;;;;;;;;;;7374836;19;19979;-82
2023/01/11 14:54:23;;;;;;;;;;;;;;;;;;7373586;19;19918;-82
2023/01/11 14:56:48;;;;;;;;;;;;;;;;;;7376432;19;19922;-82
2023/01/11 14:59:13;;;;;;;;;;;;;;;;;;7368037;19;19918;-81
2023/01/11 15:01:38;;;;;;;;;;;;;;;;;;7370892;19;20014;-80
2023/01/11 15:04:04;;;;;;;;;;;;;;;;;;7360358;19;20247;-79
2023/01/11 15:06:29;;;;;;;;;;;;;;;;;;7361166;19;19923;-79
2023/01/11 15:08:54;;;;;;;;;;;;;;;;;;7374517;19;19915;-82
2023/01/11 15:11:19;;;;;;;;;;;;;;;;;;7369966;19;20434;-81
2023/01/11 15:13:44;;;;;;;;;;;;;;;;;;7373684;19;20022;-81
2023/01/11 15:18:53;;;;;;;;;;;;;;;;;;7350874;19;19927;-81
2023/01/11 15:21:18;;;;;;;;;;;;;;;;;;7367430;19;19947;-81
2023/01/11 15:23:44;;;;;;;;;;;;;;;;;;7359527;19;19923;-81
2023/01/11 15:26:09;;;;;;;;;;;;;;;;;;7360854;19;20264;-79
2023/01/11 15:28:35;;;;;;;;;;;;;;;;;;7364798;19;19915;-81
2023/01/11 15:31:00;;;;;;;;;;;;;;;;;;7364597;19;20247;-81
2023/01/11 15:33:25;;;;;;;;;;;;;;;;;;7366057;19;20604;-82
2023/01/11 15:35:50;;;;;;;;;;;;;;;;;;7367823;19;19919;-82
2023/01/11 15:38:15;;;;;;;;;;;;;;;;;;7365793;19;19915;-81
2023/01/11 15:40:40;;;;;;;;;;;;;;;;;;7372110;19;20403;-81
2023/01/11 15:43:06;;;;;;;;;;;;;;;;;;7371727;19;19962;-82
2023/01/11 15:45:31;;;;;;;;;;;;;;;;;;7367138;19;20352;-81
2023/01/11 15:47:56;;;;;;;;;;;;;;;;;;7372795;19;19979;-81
2023/01/11 15:50:21;;;;;;;;;;;;;;;;;;7366110;19;19919;-82
2023/01/11 15:52:49;;;;;;;;;;;;;;;;;;7369299;19;19918;-81
2023/01/11 15:55:14;;;;;;;;;;;;;;;;;;7372212;19;19907;-81
2023/01/11 15:57:39;;;;;;;;;;;;;;;;;;7373647;19;19933;-81
2023/01/11 16:00:04;;;;;;;;;;;;;;;;;;7369794;19;20216;-81
2023/01/11 16:02:29;;;;;;;;;;;;;;;;;;7367673;19;20279;-82
2023/01/11 16:04:55;;;;;;;;;;;;;;;;;;7372114;19;19951;-81
2023/01/11 16:07:20;;;;;;;;;;;;;;;;;;7366400;19;19919;-81
2023/01/11 16:09:45;;;;;;;;;;;;;;;;;;7372627;19;20004;-82
2023/01/11 16:12:10;;;;;;;;;;;;;;;;;;7367772;19;20296;-81
2023/01/11 16:14:36;;;;;;;;;;;;;;;;;;7366345;19;20084;-82
2023/01/11 16:17:01;;;;;;;;;;;;;;;;;;7363796;19;19918;-81
2023/01/11 16:19:26;;;;;;;;;;;;;;;;;;7364904;19;19976;-81
2023/01/11 16:21:51;;;;;;;;;;;;;;;;;;7365707;19;19934;-81
2023/01/11 16:24:16;;;;;;;;;;;;;;;;;;7362005;19;19918;-81
2023/01/11 16:26:41;;;;;;;;;;;;;;;;;;7364125;19;20036;-81
2023/01/11 16:29:07;;;;;;;;;;;;;;;;;;7358828;19;19923;-81
2023/01/11 16:31:32;;;;;;;;;;;;;;;;;;7365452;19;20274;-81
2023/01/11 16:33:57;;;;;;;;;;;;;;;;;;7370486;19;20050;-81
2023/01/11 16:36:23;;;;;;;;;;;;;;;;;;7362710;19;19911;-82
2023/01/11 16:38:48;;;;;;;;;;;;;;;;;;7363428;19;19941;-82
2023/01/11 16:41:13;;;;;;;;;;;;;;;;;;7366165;19;20216;-81
2023/01/11 16:43:38;;;;;;;;;;;;;;;;;;7367265;19;19935;-81
2023/01/11 16:46:04;;;;;;;;;;;;;;;;;;7368761;19;19915;-80
2023/01/11 16:48:29;;;;;;;;;;;;;;;;;;7366732;19;19911;-81
2023/01/11 16:50:54;;;;;;;;;;;;;;;;;;7367007;19;20055;-81
2023/01/11 16:53:19;;;;;;;;;;;;;;;;;;7360315;19;20592;-80
2023/01/11 16:55:45;;;;;;;;;;;;;;;;;;7366003;19;20022;-80
2023/01/11 16:58:10;;;;;;;;;;;;;;;;;;7366251;19;19919;-81
2023/01/11 17:00:36;;;;;;;;;;;;;;;;;;7360924;19;19948;-81
2023/01/11 17:03:01;;;;;;;;;;;;;;;;;;7366337;19;19939;-80
2023/01/11 17:05:26;;;;;;;;;;;;;;;;;;7363863;19;19931;-81
2023/01/11 17:07:52;;;;;;;;;;;;;;;;;;7370555;19;20282;-81